Nags Head, NC (27959)

8:07 PM EST on December 10, 2016 (GMT -0500)
South Ridge | | Change Station
Active Advisory: Freeze Warning

Elev 10 ft 35.95 °N, 75.63 °W | Updated 3 seconds ago

Clear
Clear
35.4 °F
Feels Like 31 °F
N
5.0
Wind Variable Wind from NNW
Gusts 7.0 mph

Today
High -- | Low -- °F
--% Chance of Precip.
Yesterday
High -- | Low -- °F
Precip. -- in
Pressure 30.50 in
Visibility 10.0 miles
Clouds Clear
Windchill 31 °F
Dew Point 24 °F
Humidity 62%
Rainfall 0.00 in
Snow Depth Not available.
7:02 AM 4:48 PM
Waxing Gibbous, 87% visible
METAR KFFA 110045Z AUTO 00000KT 10SM CLR 02/M04 A3050 RMK AO2 T00181044
Pressure 30.50 in
Visibility 10.0 miles
Clouds Clear
Windchill 31 °F
Dew Point 24 °F
Humidity 62%
Rainfall 0.00 in
Snow Depth Not available.
7:02 AM 4:48 PM
Waxing Gibbous, 87% visible
METAR KFFA 110045Z AUTO 00000KT 10SM CLR 02/M04 A3050 RMK AO2 T00181044

10-Day Weather Forecast

Almanac

Astronomy

Dec. 10, 2016 Rise Set
Actual Time
Civil Twilight
Nautical Twilight
Astronomical Twilight
Moon
Length of Visible Light
Length of Day
Tomorrow will be .
, % of the Moon is Illuminated

Today's Extremes

State Highs State Lows

Community

WunderPhotos

Upload Photos

1,956,685 photos uploaded!

WunderBlog® & News

Nearby

Air Quality

  Air Quality AQ Index Pollutant
Not available.

Snow Depth

Station Depth Elevation

Earthquake Activity

City Distance Mag. Time & Date
Minimum magnitude displayed is 2.5.

Coastal Water Temperatures

Place Temperature

Stations

Nearby Weather Stations

Station Location Temp. Windchill Dew Point Humidity Wind Precip. Elev Updated Type
                   

Watches & Warnings

Freeze Warning
Issued: 3:00 PM EST Dec. 10, 2016 – National Weather Service

... Freeze warning in effect from midnight tonight to 8 am EST
Sunday...

The National Weather Service in Newport/Morehead City has issued
a freeze warning... which is in effect from midnight tonight to
8 am EST Sunday.

* Temperatures... 28 to 32.

* Timing... after midnight.

Precautionary/preparedness actions...

A freeze warning means sub-freezing temperatures are imminent or
highly likely. These conditions will kill crops and other
sensitive vegetation.